createdAt,value
2019-02-26T00:05:12.235Z,12.13
2019-02-26T00:07:51.579Z,12.55
2019-02-26T00:16:39.972Z,11.83
2019-02-26T00:19:21.334Z,11.48
2019-02-26T00:22:02.769Z,10.20
2019-02-26T00:24:44.404Z,13.30
2019-02-26T00:27:28.195Z,11.43
2019-02-26T00:30:09.622Z,11.05
2019-02-26T00:32:53.109Z,10.72
2019-02-26T00:35:33.956Z,10.58
2019-02-26T00:38:17.270Z,10.50
2019-02-26T00:40:59.992Z,10.75
2019-02-26T00:43:41.484Z,10.88
2019-02-26T00:46:24.216Z,11.03
2019-02-26T00:49:07.486Z,12.65
2019-02-26T00:51:49.073Z,11.05
2019-02-26T00:54:31.835Z,11.95
2019-02-26T00:57:14.001Z,10.80
2019-02-26T00:59:55.158Z,11.35
2019-02-26T01:02:34.890Z,10.50
2019-02-26T01:05:23.932Z,10.30
2019-02-26T01:08:15.110Z,10.45
2019-02-26T01:11:19.293Z,11.53
2019-02-26T01:13:55.205Z,11.63
2019-02-26T01:16:37.147Z,11.97
2019-02-26T01:19:19.850Z,10.23
2019-02-26T01:22:01.482Z,12.88
2019-02-26T01:24:43.014Z,10.48
2019-02-26T01:27:24.352Z,12.60
2019-02-26T01:30:05.812Z,11.03
2019-02-26T01:32:47.234Z,10.90
2019-02-26T01:35:30.573Z,10.75
2019-02-26T01:38:12.609Z,11.43
2019-02-26T01:40:55.882Z,11.90
2019-02-26T01:43:36.303Z,11.10
2019-02-26T01:46:18.789Z,12.47
2019-02-26T01:48:59.904Z,12.13
2019-02-26T01:51:43.309Z,10.75
2019-02-26T01:54:25.290Z,10.75
2019-02-26T01:57:08.648Z,12.25
2019-02-26T01:59:50.239Z,11.20
2019-02-26T02:02:32.107Z,13.20
2019-02-26T02:05:12.880Z,12.63
2019-02-26T02:07:54.097Z,14.05
2019-02-26T02:10:36.882Z,14.10
2019-02-26T02:13:17.701Z,11.78
2019-02-26T02:15:59.717Z,11.80
2019-02-26T02:18:46.037Z,11.80
2019-02-26T02:21:26.001Z,13.28
2019-02-26T02:24:10.746Z,12.07
2019-02-26T02:26:53.545Z,15.28
2019-02-26T02:29:34.592Z,11.88
2019-02-26T02:32:15.940Z,12.23
2019-02-26T02:35:00.525Z,12.70
2019-02-26T02:37:39.954Z,11.85
2019-02-26T02:40:21.826Z,13.78
2019-02-26T02:43:04.479Z,14.03
2019-02-26T02:45:47.488Z,13.75
2019-02-26T02:48:28.254Z,14.00
2019-02-26T02:51:13.136Z,15.40
2019-02-26T02:53:54.099Z,11.70
2019-02-26T02:56:36.998Z,12.65
2019-02-26T02:59:18.336Z,13.25
2019-02-26T03:01:59.719Z,11.45
2019-02-26T03:04:41.252Z,14.03
2019-02-26T03:07:23.679Z,11.95
2019-02-26T03:10:06.762Z,13.58
2019-02-26T03:12:51.425Z,13.65
2019-02-26T03:15:35.204Z,12.07
2019-02-26T03:18:14.874Z,12.98
2019-02-26T03:20:56.612Z,15.88
2019-02-26T03:23:45.607Z,13.43
2019-02-26T03:26:35.782Z,14.58
2019-02-26T03:29:24.356Z,13.62
2019-02-26T03:32:12.973Z,17.48
2019-02-26T03:35:04.763Z,14.68
2019-02-26T03:38:03.905Z,16.70
2019-02-26T03:40:42.548Z,16.23
2019-02-26T03:43:32.205Z,14.40
2019-02-26T03:49:32.438Z,13.28
2019-02-26T03:52:15.362Z,15.38
2019-02-26T03:55:03.510Z,15.35
2019-02-26T03:57:54.309Z,12.85
2019-02-26T04:00:43.653Z,14.18
2019-02-26T04:03:32.586Z,16.60
2019-02-26T04:09:21.959Z,15.08
2019-02-26T04:15:00.379Z,13.65
2019-02-26T04:17:42.269Z,16.55
2019-02-26T04:20:26.958Z,13.78
2019-02-26T04:23:08.406Z,14.03
2019-02-26T04:25:51.502Z,13.75
2019-02-26T04:28:33.453Z,14.68
2019-02-26T04:31:14.901Z,14.73
2019-02-26T04:33:56.798Z,15.13
2019-02-26T04:36:41.623Z,15.18
2019-02-26T04:39:22.337Z,14.18
2019-02-26T04:42:05.440Z,13.58
2019-02-26T04:44:50.042Z,15.43
2019-02-26T04:47:33.443Z,13.85
2019-02-26T04:50:12.247Z,13.28
2019-02-26T04:52:55.391Z,15.75
2019-02-26T04:55:38.236Z,14.87
2019-02-26T04:58:20.245Z,13.95
2019-02-26T05:01:01.195Z,15.98
2019-02-26T05:03:42.463Z,13.80
2019-02-26T05:06:23.296Z,13.58
2019-02-26T05:09:05.700Z,13.68
2019-02-26T05:11:47.765Z,14.15
2019-02-26T05:14:28.977Z,16.80
2019-02-26T05:17:10.480Z,13.55
2019-02-26T05:19:51.969Z,15.40
2019-02-26T05:22:33.703Z,15.00
2019-02-26T05:25:17.635Z,14.98
2019-02-26T05:27:57.995Z,18.17
2019-02-26T05:30:40.416Z,16.32
2019-02-26T05:33:24.730Z,15.28
2019-02-26T05:36:06.149Z,15.72
2019-02-26T05:38:49.141Z,14.03
2019-02-26T05:41:29.890Z,13.55
2019-02-26T05:44:11.317Z,13.72
2019-02-26T05:46:56.112Z,13.90
2019-02-26T05:49:38.431Z,16.17
2019-02-26T05:52:21.435Z,14.85
2019-02-26T05:55:01.956Z,17.35
2019-02-26T05:57:42.789Z,14.63
2019-02-26T06:00:26.277Z,17.02
2019-02-26T06:03:09.668Z,18.15
2019-02-26T06:05:51.971Z,19.32
2019-02-26T06:08:35.832Z,14.43
2019-02-26T06:11:17.080Z,15.10
2019-02-26T06:14:00.868Z,18.07
2019-02-26T06:16:40.771Z,20.45
2019-02-26T06:19:21.875Z,15.95
2019-02-26T06:22:03.378Z,17.32
2019-02-26T06:24:44.951Z,18.45
2019-02-26T06:27:27.324Z,21.80
2019-02-26T06:30:11.561Z,18.80
2019-02-26T06:32:51.054Z,17.05
2019-02-26T06:35:33.758Z,18.70
2019-02-26T06:38:15.662Z,20.68
2019-02-26T06:40:56.407Z,18.75
2019-02-26T06:43:40.000Z,16.62
2019-02-26T06:46:20.626Z,15.93
2019-02-26T06:49:02.299Z,16.32
2019-02-26T06:51:45.083Z,16.85
2019-02-26T06:54:27.144Z,13.98
2019-02-26T06:57:09.992Z,18.55
2019-02-26T06:59:53.167Z,18.02
2019-02-26T07:02:32.820Z,17.60
2019-02-26T07:05:35.351Z,17.92
2019-02-26T07:08:12.500Z,19.60
2019-02-26T07:13:58.840Z,16.70
2019-02-26T07:16:40.488Z,17.27
2019-02-26T07:19:21.273Z,16.77
2019-02-26T07:22:02.855Z,16.55
2019-02-26T07:24:46.235Z,18.60
2019-02-26T07:27:28.699Z,17.62
2019-02-26T07:30:09.927Z,18.52
2019-02-26T07:32:50.905Z,20.05
2019-02-26T07:35:33.288Z,17.75
2019-02-26T07:38:16.181Z,17.25
2019-02-26T07:41:00.830Z,22.58
2019-02-26T07:43:43.462Z,22.22
2019-02-26T07:46:23.748Z,19.02
2019-02-26T07:49:07.335Z,18.15
2019-02-26T07:51:47.824Z,18.62
2019-02-26T07:54:29.448Z,22.95
2019-02-26T07:57:09.182Z,19.55
2019-02-26T07:59:57.869Z,40.88
2019-02-26T08:02:47.072Z,43.35
2019-02-26T08:05:35.760Z,28.30
2019-02-26T08:11:32.328Z,19.87
2019-02-26T08:14:21.494Z,19.85
2019-02-26T08:17:04.484Z,23.25
2019-02-26T08:19:49.109Z,25.65
2019-02-26T08:22:31.794Z,26.52
2019-02-26T08:25:11.944Z,34.80
2019-02-26T08:27:53.953Z,31.52
2019-02-26T08:30:35.426Z,28.35
2019-02-26T08:33:16.639Z,32.70
2019-02-26T08:35:56.619Z,33.00
2019-02-26T08:42:13.445Z,29.40
2019-02-26T08:45:02.504Z,29.98
2019-02-26T08:47:51.335Z,29.23
2019-02-26T08:50:42.275Z,24.05
2019-02-26T08:56:41.009Z,25.90
2019-02-26T08:59:30.782Z,24.75
2019-02-26T09:02:19.877Z,24.65
2019-02-26T09:05:20.426Z,20.62
2019-02-26T09:07:59.057Z,24.98
2019-02-26T09:16:49.789Z,22.55
2019-02-26T09:19:30.233Z,22.85
2019-02-26T09:22:14.176Z,23.38
2019-02-26T09:24:56.826Z,23.55
2019-02-26T09:27:42.728Z,24.45
2019-02-26T09:30:21.762Z,27.50
2019-02-26T09:33:03.474Z,24.45
2019-02-26T09:35:46.993Z,32.20
2019-02-26T09:38:27.590Z,21.42
2019-02-26T09:41:10.035Z,26.65
2019-02-26T09:43:51.797Z,23.70
2019-02-26T09:46:35.794Z,21.55
2019-02-26T09:49:15.195Z,20.82
2019-02-26T09:51:56.839Z,23.25
2019-02-26T09:54:42.685Z,24.80
2019-02-26T09:57:23.329Z,23.10
2019-02-26T10:00:05.410Z,21.90
2019-02-26T10:02:47.532Z,23.47
2019-02-26T10:05:29.439Z,21.48
2019-02-26T10:08:10.211Z,23.32
2019-02-26T10:10:52.591Z,33.25
2019-02-26T10:13:33.994Z,31.00
2019-02-26T10:16:14.868Z,24.85
2019-02-26T10:18:56.747Z,20.72
2019-02-26T10:21:39.834Z,24.15
2019-02-26T10:24:22.960Z,27.22
2019-02-26T10:27:05.984Z,28.75
2019-02-26T10:29:47.541Z,25.15
2019-02-26T10:32:32.694Z,32.35
2019-02-26T10:35:15.926Z,22.02
2019-02-26T10:37:57.128Z,24.82
2019-02-26T10:40:50.763Z,22.87
2019-02-26T10:43:21.463Z,22.00
2019-02-26T10:46:02.880Z,23.30
2019-02-26T10:48:45.658Z,22.98
2019-02-26T10:51:27.272Z,25.17
2019-02-26T10:54:11.749Z,24.18
2019-02-26T10:56:51.376Z,22.90
2019-02-26T10:59:32.929Z,21.02
2019-02-26T11:02:15.185Z,25.43
2019-02-26T11:04:56.895Z,23.73
2019-02-26T11:07:40.078Z,21.87
2019-02-26T11:10:22.709Z,22.77
2019-02-26T11:13:03.094Z,24.05
2019-02-26T11:15:44.114Z,24.65
2019-02-26T11:18:25.519Z,27.00
2019-02-26T11:21:07.118Z,31.50
2019-02-26T11:23:48.663Z,22.85
2019-02-26T11:26:35.183Z,21.33
2019-02-26T11:29:16.009Z,23.60
2019-02-26T11:31:56.762Z,25.20
2019-02-26T11:34:38.307Z,26.37
2019-02-26T11:37:20.327Z,24.10
2019-02-26T11:40:02.871Z,26.60
2019-02-26T11:42:46.709Z,30.00
2019-02-26T11:45:26.687Z,26.57
2019-02-26T11:48:17.415Z,24.75
2019-02-26T11:54:04.968Z,30.70
2019-02-26T11:56:55.180Z,24.43
2019-02-26T11:59:43.750Z,25.77
2019-02-26T12:02:44.117Z,29.50
2019-02-26T12:08:32.093Z,25.15
2019-02-26T12:11:23.102Z,27.85
2019-02-26T12:14:13.764Z,29.33
2019-02-26T12:16:54.367Z,26.27
2019-02-26T12:19:37.139Z,24.13
2019-02-26T12:22:20.337Z,32.73
2019-02-26T12:25:02.697Z,25.03
2019-02-26T12:27:45.626Z,23.57
2019-02-26T12:30:27.194Z,24.17
2019-02-26T12:33:09.832Z,24.10
2019-02-26T12:35:50.476Z,19.83
2019-02-26T12:38:31.541Z,19.60
2019-02-26T12:41:15.586Z,22.57
2019-02-26T12:43:58.790Z,22.67
2019-02-26T12:46:38.040Z,20.80
2019-02-26T12:49:28.960Z,22.87
2019-02-26T12:52:18.745Z,23.93
2019-02-26T12:55:10.404Z,22.87
2019-02-26T12:57:59.464Z,20.17
2019-02-26T13:09:51.998Z,21.37
2019-02-26T13:12:39.541Z,23.10
2019-02-26T13:15:20.486Z,18.87
2019-02-26T13:18:02.258Z,18.17
2019-02-26T13:20:43.260Z,20.70
2019-02-26T13:23:24.503Z,19.77
2019-02-26T13:26:08.418Z,18.07
2019-02-26T13:28:53.011Z,17.47
2019-02-26T13:31:33.958Z,17.00
2019-02-26T13:34:14.229Z,21.00
2019-02-26T13:36:56.797Z,17.77
2019-02-26T13:39:41.218Z,18.13
2019-02-26T13:42:20.869Z,19.50
2019-02-26T13:45:02.368Z,19.53
2019-02-26T13:47:43.949Z,16.00
2019-02-26T13:50:25.511Z,16.87
2019-02-26T13:53:07.236Z,17.70
2019-02-26T13:55:48.577Z,19.73
2019-02-26T13:58:29.380Z,18.50
2019-02-26T14:01:10.617Z,20.00
2019-02-26T14:03:52.172Z,19.50
2019-02-26T14:06:32.893Z,20.30
2019-02-26T14:09:12.856Z,17.93
2019-02-26T14:12:01.524Z,15.97
2019-02-26T14:14:51.828Z,20.70
2019-02-26T14:17:40.736Z,16.97
2019-02-26T14:20:31.274Z,17.40
2019-02-26T14:23:20.497Z,14.40
2019-02-26T14:29:07.920Z,14.13
2019-02-26T14:31:56.643Z,13.50
2019-02-26T14:34:59.639Z,17.33
2019-02-26T14:40:45.314Z,13.50
2019-02-26T14:52:47.396Z,11.80
2019-02-26T14:55:37.593Z,11.60
2019-02-26T14:58:13.875Z,12.80
2019-02-26T15:01:14.210Z,11.57
2019-02-26T15:07:02.011Z,12.30
2019-02-26T15:15:58.027Z,12.90
2019-02-26T15:28:04.742Z,15.50
2019-02-26T15:36:45.613Z,13.20
2019-02-26T15:42:56.309Z,11.80
2019-02-26T15:51:38.547Z,13.73
2019-02-26T15:54:27.898Z,14.40
2019-02-26T15:57:18.184Z,15.43
2019-02-26T16:00:26.155Z,14.10
2019-02-26T16:03:14.818Z,16.10
2019-02-26T16:05:56.102Z,16.80
2019-02-26T16:08:38.618Z,18.73
2019-02-26T16:11:19.976Z,19.73
2019-02-26T16:14:01.404Z,18.40
2019-02-26T16:16:43.008Z,17.17
2019-02-26T16:19:24.342Z,18.50
2019-02-26T16:22:05.053Z,17.70
2019-02-26T16:24:45.953Z,19.13
2019-02-26T16:27:27.748Z,17.30
2019-02-26T16:30:09.065Z,18.33
2019-02-26T16:32:50.613Z,15.73
2019-02-26T16:35:31.753Z,16.90
2019-02-26T16:38:14.114Z,17.10
2019-02-26T16:40:56.171Z,19.07
2019-02-26T16:43:38.024Z,31.77
2019-02-26T16:46:19.574Z,21.20
2019-02-26T16:49:01.042Z,18.90
2019-02-26T16:51:41.869Z,20.07
2019-02-26T16:54:23.331Z,16.00
2019-02-26T16:57:04.066Z,18.43
2019-02-26T16:59:45.577Z,17.10
2019-02-26T17:02:27.487Z,14.83
2019-02-26T17:05:08.758Z,15.77
2019-02-26T17:07:50.249Z,18.37
2019-02-26T17:10:31.320Z,15.98
2019-02-26T17:13:12.538Z,17.17
2019-02-26T17:15:54.063Z,18.67
2019-02-26T17:18:35.539Z,16.73
2019-02-26T17:21:17.058Z,23.18
2019-02-26T17:23:59.100Z,22.32
2019-02-26T17:26:40.213Z,25.35
2019-02-26T17:29:21.584Z,26.15
2019-02-26T17:32:04.701Z,23.05
2019-02-26T17:34:45.453Z,22.15
2019-02-26T17:37:26.912Z,21.25
2019-02-26T17:40:08.185Z,17.95
2019-02-26T17:42:51.266Z,20.50
2019-02-26T17:45:34.938Z,18.98
2019-02-26T17:48:16.137Z,18.90
2019-02-26T17:50:57.975Z,20.17
2019-02-26T17:53:39.321Z,22.17
2019-02-26T17:56:20.961Z,21.75
2019-02-26T17:59:02.572Z,26.60
2019-02-26T18:01:43.668Z,21.90
2019-02-26T18:04:23.702Z,20.20
2019-02-26T18:07:12.448Z,23.12
2019-02-26T18:13:10.709Z,22.67
2019-02-26T18:19:12.411Z,26.12
2019-02-26T18:22:14.937Z,25.75
2019-02-26T18:30:46.272Z,23.98
2019-02-26T18:36:58.442Z,17.73
2019-02-26T18:42:43.900Z,19.48
2019-02-26T18:45:33.241Z,20.72
2019-02-26T18:51:20.623Z,28.90
2019-02-26T18:54:09.245Z,26.45
2019-02-26T18:57:11.606Z,21.57
2019-02-26T19:02:57.585Z,22.25
2019-02-26T19:05:39.351Z,15.03
2019-02-26T19:08:20.932Z,17.17
2019-02-26T19:11:02.712Z,19.92
2019-02-26T19:13:44.033Z,17.12
2019-02-26T19:16:25.373Z,17.45
2019-02-26T19:19:09.147Z,24.07
2019-02-26T19:21:51.706Z,17.98
2019-02-26T19:24:35.618Z,17.00
2019-02-26T19:27:16.868Z,18.40
2019-02-26T19:29:58.009Z,16.15
2019-02-26T19:32:39.501Z,15.75
2019-02-26T19:35:21.056Z,17.17
2019-02-26T19:38:02.479Z,16.40
2019-02-26T19:40:44.263Z,19.12
2019-02-26T19:43:26.045Z,16.55
2019-02-26T19:46:07.739Z,18.52
2019-02-26T19:48:49.218Z,18.02
2019-02-26T19:51:30.833Z,16.70
2019-02-26T19:54:10.596Z,17.50
2019-02-26T19:56:59.245Z,20.27
2019-02-26T19:59:47.871Z,27.07
2019-02-26T20:02:36.512Z,27.40
2019-02-26T20:05:25.191Z,23.25
2019-02-26T20:11:24.840Z,21.12
2019-02-26T20:14:04.888Z,17.52
2019-02-26T20:16:53.733Z,17.62
2019-02-26T20:19:42.524Z,18.65
2019-02-26T20:28:47.958Z,18.20
2019-02-26T20:34:35.874Z,21.62
2019-02-26T20:43:29.087Z,26.70
2019-02-26T20:46:17.839Z,23.65
2019-02-26T20:49:06.512Z,22.40
2019-02-26T20:57:56.856Z,22.35
2019-02-26T21:00:49.826Z,22.73
2019-02-26T21:03:26.126Z,23.25
2019-02-26T21:06:15.615Z,19.92
2019-02-26T21:12:46.110Z,21.68
2019-02-26T21:15:38.713Z,22.07
2019-02-26T21:18:15.225Z,22.17
2019-02-26T21:21:04.039Z,21.57
2019-02-26T21:23:53.156Z,21.05
2019-02-26T21:26:41.895Z,20.30
2019-02-26T21:29:44.520Z,21.85
2019-02-26T21:32:33.455Z,22.62
2019-02-26T21:41:06.973Z,21.40
2019-02-26T21:50:04.020Z,21.07
2019-02-26T21:53:04.386Z,23.67
2019-02-26T21:55:44.508Z,21.80
2019-02-26T21:58:33.473Z,24.10
2019-02-26T22:01:22.139Z,23.67
2019-02-26T22:07:06.674Z,20.40
2019-02-26T22:12:51.140Z,23.15
2019-02-26T22:15:51.739Z,23.07
2019-02-26T22:18:33.984Z,22.45
2019-02-26T22:21:20.425Z,22.52
2019-02-26T22:24:09.782Z,23.40
2019-02-26T22:27:00.300Z,22.07
2019-02-26T22:33:11.093Z,20.48
2019-02-26T22:39:16.532Z,19.05
2019-02-26T22:42:19.315Z,20.17
2019-02-26T22:47:51.069Z,26.97
2019-02-26T22:50:39.676Z,23.10
2019-02-26T22:53:40.025Z,21.20
2019-02-26T22:56:11.319Z,27.50
2019-02-26T22:58:52.875Z,21.70
2019-02-26T23:01:37.416Z,19.92
2019-02-26T23:04:19.779Z,22.13
2019-02-26T23:07:04.436Z,21.70
2019-02-26T23:09:43.875Z,23.05
2019-02-26T23:12:24.963Z,21.90
2019-02-26T23:15:04.908Z,22.45
2019-02-26T23:17:58.200Z,20.40
2019-02-26T23:20:57.995Z,17.98
2019-02-26T23:23:34.514Z,20.72
2019-02-26T23:32:55.723Z,21.87
2019-02-26T23:35:44.339Z,24.12
2019-02-26T23:38:32.973Z,25.30
2019-02-26T23:41:21.913Z,22.27
2019-02-26T23:44:21.957Z,20.27
2019-02-26T23:49:56.024Z,21.12
2019-02-26T23:53:01.183Z,26.73
2019-02-26T23:55:35.772Z,21.75
2019-02-26T23:58:17.044Z,29.95
